Bethune, Colorado
Current Conditions -  °F | °C
As of 2:53 AM on Monday 22 Dec 2014 (Local Time) from KITR Reporting Station
Few Clouds Few Clouds  
Wind Chill: 26°   Ceiling: Unl
Heat Index: 36°   Visibility: 10mi
Dew Point: 31°   Wind: 17mph
Humidity: 82%   Direction: 320°NW
Pressure: 29.66"   Gusts: NA
Location:  39.3°N, 102.42°W
Report Text: KITR 220953Z AUTO 32015KT 10SM FEW120 02/M01 A2966 RMK AO2 PK WND 34030/0855 UPE0854RAB0854E07 SLP037 P0000 T00221006 $
Loading
Personal Weather Stations






























Interactive Weather Map New forecast layout! Learn more

10-Day Weather Forecast

Advertisements
Track Severe Weather on mobile